Time;durP1;ratioP1;P1;durP2;ratioP2;P2;SDS_P1;SDS_P2;PMS_P1;PMS_P2;Temp;Humidity;BMP_temperature;BMP_pressure;BME280_temperature;BME280_humidity;BME280_pressure;Samples;Min_cycle;Max_cycle;Signal;HPM_P1;HPM_P2
2022/01/25 00:15:25;;;;;;;30.17;12.10;;;;;;;-7.01;72.09;101082.84;5041106;28;20053;-79
2022/01/25 00:26:30;;;;;;;36.00;14.05;;;;;;;-7.13;72.68;101074.97;5055900;28;20052;-77
2022/01/25 00:29:15;;;;;;;37.38;14.85;;;;;;;-7.05;72.62;101068.94;5056428;28;20059;-78
2022/01/25 00:31:43;;;;;;;35.80;13.57;;;;;;;-7.15;72.25;101068.84;5037286;28;20473;-79
2022/01/25 00:34:10;;;;;;;33.58;13.95;;;;;;;-7.21;72.88;101061.53;5055453;28;20056;-78
2022/01/25 00:36:37;;;;;;;30.70;13.63;;;;;;;-7.07;72.76;101056.88;5037696;28;20057;-79
2022/01/25 00:39:05;;;;;;;33.35;12.90;;;;;;;-7.04;72.32;101052.06;5055542;28;20099;-79
2022/01/25 00:41:32;;;;;;;32.60;12.82;;;;;;;-7.06;72.84;101056.09;5055269;28;20057;-79
2022/01/25 00:44:01;;;;;;;38.83;15.32;;;;;;;-6.99;72.23;101043.19;5055512;28;20099;-80
2022/01/25 00:46:29;;;;;;;36.17;14.02;;;;;;;-6.91;72.73;101046.47;5055202;28;20057;-80
2022/01/25 00:49:01;;;;;;;38.05;14.48;;;;;;;-6.98;72.71;101046.66;5055276;28;20064;-78
2022/01/25 00:54:15;;;;;;;36.53;14.50;;;;;;;-7.15;72.69;101033.28;5055287;28;20057;-78
2022/01/25 00:56:45;;;;;;;37.80;14.88;;;;;;;-7.09;72.98;101025.34;5045182;28;20075;-79
2022/01/25 00:59:15;;;;;;;36.13;15.73;;;;;;;-7.06;73.16;101013.81;5063166;28;20424;-78
2022/01/25 01:01:43;;;;;;;38.97;14.85;;;;;;;-7.02;72.95;101010.78;5061804;28;20052;-78
2022/01/25 01:04:10;;;;;;;39.38;15.55;;;;;;;-7.06;72.78;101013.81;5055654;28;20056;-79
2022/01/25 01:06:40;;;;;;;38.80;14.65;;;;;;;-7.00;72.33;101006.75;5058239;28;20149;-78
2022/01/25 01:09:09;;;;;;;39.97;16.52;;;;;;;-6.92;72.73;101001.50;5022731;28;20056;-79
2022/01/25 01:11:44;;;;;;;44.92;15.52;;;;;;;-7.06;72.45;100988.41;5054823;28;20053;-79
2022/01/25 01:14:39;;;;;;;43.55;16.75;;;;;;;-7.23;72.74;100984.34;5038504;28;20492;-79
2022/01/25 01:30:57;;;;;;;39.03;15.15;;;;;;;-7.30;73.14;100981.97;5054888;28;20076;-79
2022/01/25 01:43:33;;;;;;;46.70;15.90;;;;;;;-7.52;73.91;100948.66;5054318;28;20053;-78
2022/01/25 01:51:19;;;;;;;44.83;16.20;;;;;;;-7.39;73.59;100929.50;5054460;28;20487;-79
2022/01/25 01:53:47;;;;;;;45.63;16.55;;;;;;;-7.32;73.52;100925.09;5053984;28;20159;-79
2022/01/25 01:56:14;;;;;;;44.10;15.35;;;;;;;-7.32;73.36;100924.22;5053888;28;20044;-78
2022/01/25 01:58:41;;;;;;;38.72;15.95;;;;;;;-7.35;73.95;100914.66;5035959;28;20056;-78
2022/01/25 02:01:11;;;;;;;39.85;13.98;;;;;;;-7.35;73.44;100919.75;5053951;28;20048;-79
2022/01/25 02:03:39;;;;;;;40.63;16.27;;;;;;;-7.42;73.48;100899.63;5054281;28;20057;-79
2022/01/25 02:06:06;;;;;;;40.88;15.10;;;;;;;-7.39;74.12;100899.03;5053811;28;20061;-79
2022/01/25 02:08:34;;;;;;;39.88;14.88;;;;;;;-7.27;74.24;100911.19;5053845;28;20059;-80
2022/01/25 02:11:02;;;;;;;38.22;15.00;;;;;;;-7.11;73.87;100903.28;5053712;28;20171;-79
2022/01/25 02:13:29;;;;;;;39.70;14.93;;;;;;;-7.08;73.61;100890.84;5053656;28;20053;-78
2022/01/25 02:15:59;;;;;;;42.35;15.57;;;;;;;-6.94;73.62;100889.56;5036153;28;20049;-78
2022/01/25 02:24:05;;;;;;;37.53;15.20;;;;;;;-6.92;73.25;100890.59;5053690;28;20062;-79
2022/01/25 02:26:33;;;;;;;36.67;14.02;;;;;;;-7.13;73.49;100881.94;5053480;28;20051;-77
2022/01/25 02:28:59;;;;;;;39.53;15.07;;;;;;;-7.09;73.61;100878.03;5036171;28;20080;-78
2022/01/25 02:31:26;;;;;;;39.13;13.70;;;;;;;-7.04;73.47;100876.78;5053847;28;20045;-77
2022/01/25 02:33:54;;;;;;;39.67;14.57;;;;;;;-7.12;73.50;100876.13;5053003;28;20463;-77
2022/01/25 02:36:27;;;;;;;39.20;14.88;;;;;;;-7.06;73.65;100871.56;5053276;28;20088;-78
2022/01/25 02:38:55;;;;;;;37.30;13.98;;;;;;;-7.12;73.62;100862.50;5053540;28;20048;-78
2022/01/25 02:41:23;;;;;;;33.85;13.00;;;;;;;-7.37;73.71;100829.88;5052989;28;20056;-78
2022/01/25 02:43:52;;;;;;;36.60;13.68;;;;;;;-7.39;73.93;100851.69;5053216;28;20071;-79
2022/01/25 02:46:22;;;;;;;30.30;13.38;;;;;;;-7.28;73.94;100857.72;5035703;28;20068;-80
2022/01/25 02:49:19;;;;;;;35.45;13.57;;;;;;;-7.25;73.49;100842.75;5053250;28;20101;-79
2022/01/25 02:51:48;;;;;;;34.72;14.35;;;;;;;-7.27;73.79;100837.56;5039918;28;20057;-78
2022/01/25 02:54:17;;;;;;;37.40;15.45;;;;;;;-7.21;73.72;100843.16;5035377;28;20057;-77
2022/01/25 02:56:45;;;;;;;32.40;12.55;;;;;;;-7.26;73.78;100841.88;5052468;28;20132;-78
2022/01/25 02:59:14;;;;;;;37.08;14.85;;;;;;;-7.27;74.03;100835.00;5052861;28;20076;-78
2022/01/25 03:01:42;;;;;;;34.97;13.32;;;;;;;-7.32;74.01;100836.22;5052827;28;20155;-78
2022/01/25 03:04:10;;;;;;;38.47;14.45;;;;;;;-7.44;73.64;100830.97;5061081;28;20155;-78
2022/01/25 03:06:37;;;;;;;41.13;15.23;;;;;;;-7.42;74.24;100842.16;5050163;28;20440;-79
2022/01/25 03:09:05;;;;;;;40.85;15.48;;;;;;;-7.66;74.60;100787.53;5042479;28;20215;-78
2022/01/25 03:11:32;;;;;;;36.80;13.98;;;;;;;-7.21;73.50;100835.53;5073194;28;20059;-79
2022/01/25 03:14:03;;;;;;;38.60;13.70;;;;;;;-7.29;73.28;100833.97;5072381;28;20048;-79
2022/01/25 03:19:51;;;;;;;38.63;14.10;;;;;;;-7.34;73.27;100812.34;5072860;28;20058;-78
2022/01/25 03:25:00;;;;;;;37.45;14.73;;;;;;;-7.37;74.11;100837.47;5068284;22;20057;-80
2022/01/25 03:27:29;;;;;;;35.88;14.68;;;;;;;-7.65;74.30;100775.75;5035134;28;20524;-79
2022/01/25 03:29:55;;;;;;;31.33;12.60;;;;;;;-7.21;73.79;100822.84;5053270;28;20049;-79
2022/01/25 03:32:22;;;;;;;36.50;13.77;;;;;;;-7.30;73.39;100819.50;5053009;28;20091;-80
2022/01/25 03:34:49;;;;;;;35.53;15.32;;;;;;;-7.32;73.41;100825.19;5036249;28;20071;-79
2022/01/25 03:37:16;;;;;;;38.78;14.68;;;;;;;-7.42;73.89;100813.31;5060453;28;20459;-79
2022/01/25 03:39:43;;;;;;;38.25;15.35;;;;;;;-7.36;73.75;100830.75;5044541;28;20053;-80
2022/01/25 03:42:11;;;;;;;40.50;16.23;;;;;;;-7.42;73.62;100821.84;5062270;28;20143;-79
2022/01/25 03:44:40;;;;;;;39.78;16.25;;;;;;;-7.47;73.58;100823.06;5061158;28;20402;-78
2022/01/25 03:47:11;;;;;;;39.17;14.68;;;;;;;-7.38;73.41;100828.06;5057788;28;20052;-81
2022/01/25 03:49:50;;;;;;;38.08;15.05;;;;;;;-7.57;73.79;100809.41;5034713;28;20059;-81
2022/01/25 03:52:28;;;;;;;39.75;15.35;;;;;;;-7.45;74.00;100820.66;5052579;28;20102;-81
2022/01/25 03:54:55;;;;;;;39.10;14.77;;;;;;;-7.43;73.84;100809.88;5052521;28;20504;-81
2022/01/25 03:57:22;;;;;;;38.45;14.55;;;;;;;-7.38;74.08;100810.28;5034548;28;20540;-81
2022/01/25 03:59:50;;;;;;;37.28;14.50;;;;;;;-7.34;73.73;100803.84;5052087;28;20056;-80
2022/01/25 04:02:16;;;;;;;39.83;15.23;;;;;;;-7.33;73.55;100814.16;5052308;28;20056;-80
2022/01/25 04:04:50;;;;;;;38.85;14.75;;;;;;;-7.36;73.96;100798.63;5035145;28;20505;-79
2022/01/25 04:07:26;;;;;;;38.28;14.43;;;;;;;-7.51;73.40;100787.09;5052266;28;20114;-81
2022/01/25 04:09:53;;;;;;;40.17;14.85;;;;;;;-7.69;74.08;100766.94;5051786;28;20056;-81
2022/01/25 04:12:20;;;;;;;36.88;15.18;;;;;;;-7.56;74.18;100793.44;5052298;28;20091;-82
2022/01/25 04:14:47;;;;;;;37.85;14.80;;;;;;;-7.63;73.94;100775.13;5051941;28;20533;-79
2022/01/25 04:17:22;;;;;;;36.75;14.32;;;;;;;-7.52;73.73;100770.13;5051940;28;20144;-81
2022/01/25 04:25:23;;;;;;;37.70;13.60;;;;;;;-7.49;73.62;100796.63;5051904;28;20057;-79
2022/01/25 04:27:50;;;;;;;40.03;14.85;;;;;;;-7.49;74.05;100778.88;5055553;28;20203;-81
2022/01/25 04:30:17;;;;;;;36.72;14.25;;;;;;;-7.63;73.94;100766.63;5037880;28;20536;-80
2022/01/25 04:32:50;;;;;;;40.08;15.75;;;;;;;-7.59;73.98;100762.69;5055343;28;20088;-80
2022/01/25 04:49:06;;;;;;;43.83;15.63;;;;;;;-7.80;74.29;100747.34;5039958;28;20135;-81
2022/01/25 04:51:49;;;;;;;39.78;15.35;;;;;;;-7.92;74.50;100720.84;5043338;28;20080;-82
2022/01/25 05:00:03;;;;;;;39.63;16.27;;;;;;;-7.77;74.37;100742.53;5055585;28;20080;-82
2022/01/25 05:05:07;;;;;;;46.70;16.92;;;;;;;-7.53;73.59;100725.16;5056470;28;20048;-82
2022/01/25 05:07:44;;;;;;;43.42;16.17;;;;;;;-7.46;73.11;100738.56;5055188;28;20052;-82
2022/01/25 05:10:11;;;;;;;45.60;15.95;;;;;;;-7.48;73.47;100727.38;5055212;28;20060;-81
2022/01/25 05:12:44;;;;;;;40.20;16.95;;;;;;;-7.54;73.58;100714.13;5058536;28;20084;-84
2022/01/25 05:18:23;;;;;;;44.40;16.40;;;;;;;-7.53;73.72;100690.53;5056460;28;20053;-82
2022/01/25 05:23:36;;;;;;;45.22;16.77;;;;;;;-7.54;73.67;100688.75;5065590;28;20056;-81
2022/01/25 05:26:03;;;;;;;44.58;15.43;;;;;;;-7.52;73.58;100705.00;5078115;28;20057;-80
2022/01/25 05:28:29;;;;;;;48.05;16.70;;;;;;;-7.39;73.77;100716.25;5070844;28;20053;-81
2022/01/25 05:30:56;;;;;;;46.60;17.05;;;;;;;-7.30;73.39;100702.69;5078052;28;20120;-80
2022/01/25 05:33:23;;;;;;;47.58;17.20;;;;;;;-7.16;73.73;100713.16;5074495;28;20056;-79
2022/01/25 05:35:50;;;;;;;39.88;15.20;;;;;;;-7.01;73.42;100699.28;5063974;28;20083;-78
2022/01/25 05:38:17;;;;;;;42.75;16.33;;;;;;;-7.01;73.52;100700.16;5066069;28;20049;-79
2022/01/25 05:48:48;;;;;;;45.42;17.20;;;;;;;-7.17;73.16;100640.28;5032501;28;20072;-81
2022/01/25 05:51:16;;;;;;;44.25;17.23;;;;;;;-7.11;73.36;100654.41;5032403;28;20077;-82
2022/01/25 05:53:42;;;;;;;50.63;18.08;;;;;;;-6.97;73.81;100678.44;5042598;28;20053;-81
2022/01/25 05:56:09;;;;;;;45.28;16.75;;;;;;;-7.00;73.65;100673.97;5054845;28;20052;-79
2022/01/25 05:58:37;;;;;;;46.65;17.50;;;;;;;-7.04;73.56;100664.31;5053316;28;20057;-82
2022/01/25 06:01:04;;;;;;;46.30;16.88;;;;;;;-6.85;73.28;100673.53;5053496;28;20103;-82
2022/01/25 06:03:31;;;;;;;44.60;16.33;;;;;;;-6.86;72.93;100651.41;5074235;28;20060;-81
2022/01/25 06:05:58;;;;;;;47.00;16.45;;;;;;;-6.72;73.28;100662.75;5077667;28;20025;-81
2022/01/25 06:08:25;;;;;;;48.03;18.50;;;;;;;-6.73;72.89;100661.88;5076546;28;20047;-80
2022/01/25 06:10:51;;;;;;;47.30;18.30;;;;;;;-6.80;73.28;100668.09;5077354;28;20045;-80
2022/01/25 06:13:18;;;;;;;48.80;19.08;;;;;;;-6.94;73.51;100660.03;5064998;28;20125;-80
2022/01/25 06:15:45;;;;;;;49.33;17.50;;;;;;;-6.90;73.86;100670.59;5060318;28;20057;-84
2022/01/25 06:18:12;;;;;;;46.97;17.35;;;;;;;-6.88;73.40;100658.00;5036233;28;20076;-81
2022/01/25 06:20:39;;;;;;;51.03;18.05;;;;;;;-7.03;73.73;100662.69;5054268;28;20057;-83
2022/01/25 06:23:07;;;;;;;50.40;18.05;;;;;;;-7.04;74.23;100663.44;5055160;28;20056;-82
2022/01/25 06:25:34;;;;;;;44.00;17.45;;;;;;;-7.12;74.03;100650.09;5055721;28;20501;-83
2022/01/25 06:28:02;;;;;;;48.25;18.02;;;;;;;-7.05;73.92;100648.97;5052011;28;20412;-80
2022/01/25 06:30:29;;;;;;;44.08;16.35;;;;;;;-7.10;73.94;100634.97;5054243;28;20467;-82
2022/01/25 06:32:56;;;;;;;48.28;17.17;;;;;;;-7.10;74.16;100647.66;5053085;28;20403;-83
2022/01/25 06:35:23;;;;;;;50.83;16.98;;;;;;;-7.08;73.97;100641.06;5053324;28;20057;-81
2022/01/25 06:37:51;;;;;;;43.42;17.27;;;;;;;-6.93;74.55;100642.38;5055596;28;20056;-80
2022/01/25 06:40:18;;;;;;;45.80;17.73;;;;;;;-6.84;74.08;100630.47;5053268;28;20080;-81
2022/01/25 06:42:45;;;;;;;48.33;17.80;;;;;;;-6.69;73.37;100628.34;5053007;28;20049;-82
2022/01/25 06:45:16;;;;;;;44.95;16.70;;;;;;;-6.72;73.23;100628.06;5052246;28;20053;-82
2022/01/25 06:47:45;;;;;;;49.20;17.48;;;;;;;-6.93;73.80;100595.75;5051887;28;20045;-79
2022/01/25 06:50:15;;;;;;;52.13;18.77;;;;;;;-6.72;73.29;100615.34;5051005;28;20063;-83
2022/01/25 06:52:42;;;;;;;48.47;17.48;;;;;;;-6.66;73.33;100623.50;5052748;28;20055;-81
2022/01/25 06:55:20;;;;;;;48.92;18.23;;;;;;;-6.77;73.15;100591.22;5053234;28;20048;-81
2022/01/25 06:57:47;;;;;;;45.20;17.02;;;;;;;-6.69;73.15;100609.63;5052787;28;20111;-81
2022/01/25 07:00:17;;;;;;;53.03;18.42;;;;;;;-6.76;73.29;100603.16;5051534;28;20085;-82
2022/01/25 07:02:44;;;;;;;;;;;;;;;-6.75;73.12;100599.84;5052137;28;20053;-80
2022/01/25 07:05:12;;;;;;;46.97;17.13;;;;;;;-6.87;72.92;100569.22;5052997;28;20472;-79
2022/01/25 07:07:40;;;;;;;48.60;16.83;;;;;;;-7.04;73.34;100552.56;5051885;28;20126;-79
2022/01/25 07:10:09;;;;;;;52.58;17.83;;;;;;;-6.73;72.90;100597.44;5052719;28;20057;-81
2022/01/25 07:12:36;;;;;;;49.63;18.05;;;;;;;-6.75;73.16;100606.56;5052582;28;20139;-81
2022/01/25 07:15:03;;;;;;;48.53;17.75;;;;;;;-6.89;73.25;100577.47;5052422;28;20574;-79
2022/01/25 07:17:30;;;;;;;50.83;17.08;;;;;;;-6.66;73.27;100598.06;5052554;28;20053;-79
2022/01/25 07:19:57;;;;;;;59.83;17.95;;;;;;;-6.72;73.02;100579.78;5052875;28;20500;-79
2022/01/25 07:22:24;;;;;;;56.25;18.23;;;;;;;-6.69;73.07;100591.84;5052404;28;20106;-81
2022/01/25 07:24:51;;;;;;;52.50;18.55;;;;;;;-6.70;73.18;100593.50;5052543;28;20072;-79
2022/01/25 07:27:18;;;;;;;51.05;17.58;;;;;;;-6.74;73.14;100580.41;5052373;28;20060;-79
2022/01/25 07:29:45;;;;;;;55.95;18.20;;;;;;;-6.72;72.94;100582.31;5052440;28;20079;-80
2022/01/25 07:32:12;;;;;;;56.15;19.85;;;;;;;-6.66;73.21;100561.63;5052321;28;20107;-82
2022/01/25 07:34:42;;;;;;;55.55;19.50;;;;;;;-6.61;72.76;100575.56;5052171;28;20049;-82
2022/01/25 07:37:23;;;;;;;55.25;19.33;;;;;;;-6.56;73.03;100574.31;5049575;28;20057;-81
2022/01/25 07:39:56;;;;;;;55.38;17.15;;;;;;;-6.44;72.77;100571.88;5052205;28;20064;-82
2022/01/25 07:42:23;;;;;;;52.40;18.60;;;;;;;-6.60;73.14;100542.66;5054454;28;20446;-82
2022/01/25 07:44:55;;;;;;;56.85;20.15;;;;;;;-6.62;72.96;100535.69;5058239;28;20067;-81
2022/01/25 07:47:38;;;;;;;50.83;17.58;;;;;;;-6.61;73.17;100552.72;5041082;28;20525;-81
2022/01/25 07:50:07;;;;;;;47.78;16.80;;;;;;;-6.80;72.83;100532.50;5032598;28;20465;-81
2022/01/25 07:52:37;;;;;;;53.47;17.92;;;;;;;-6.71;73.40;100538.38;5032312;28;20081;-82
2022/01/25 07:55:05;;;;;;;49.88;16.95;;;;;;;-6.70;73.40;100534.16;5014835;28;20104;-79
2022/01/25 07:57:37;;;;;;;52.75;17.50;;;;;;;-6.65;73.34;100523.59;5051500;28;20041;-81
2022/01/25 08:00:05;;;;;;;51.90;19.05;;;;;;;-6.67;72.65;100542.91;5052646;28;20052;-79
2022/01/25 08:02:41;;;;;;;53.30;18.08;;;;;;;-6.81;73.36;100534.16;5053059;28;20053;-83
2022/01/25 08:05:16;;;;;;;49.63;17.50;;;;;;;-6.84;73.39;100523.75;5060377;28;20045;-81
2022/01/25 08:07:47;;;;;;;58.05;18.38;;;;;;;-6.60;72.65;100524.00;5057100;28;20132;-81
2022/01/25 08:10:18;;;;;;;47.72;15.85;;;;;;;-6.57;72.80;100521.69;5035455;28;20053;-80
2022/01/25 08:12:47;;;;;;;47.60;16.93;;;;;;;-6.66;72.77;100510.78;5055394;28;20052;-84
2022/01/25 08:15:18;;;;;;;49.70;16.95;;;;;;;-6.63;72.81;100499.19;5054496;28;20481;-82
2022/01/25 08:17:47;;;;;;;48.15;15.88;;;;;;;-6.57;72.53;100509.00;5054957;28;20069;-81
2022/01/25 08:20:25;;;;;;;40.90;15.70;;;;;;;-6.69;72.55;100506.34;5010372;28;20045;-80
2022/01/25 08:22:58;;;;;;;48.40;16.02;;;;;;;-6.55;72.79;100487.13;5059115;28;20057;-81
2022/01/25 08:25:26;;;;;;;47.90;16.20;;;;;;;-6.56;72.38;100487.91;5055004;28;20083;-82
2022/01/25 08:27:59;;;;;;;44.00;15.70;;;;;;;-6.46;72.74;100489.53;5008090;28;20057;-81
2022/01/25 08:30:26;;;;;;;44.10;15.57;;;;;;;-6.31;72.32;100488.22;5038839;28;20056;-82
2022/01/25 08:32:54;;;;;;;48.47;17.77;;;;;;;-6.21;72.16;100497.47;5044215;28;20456;-80
2022/01/25 08:35:28;;;;;;;44.72;16.60;;;;;;;-6.21;72.05;100489.84;5037510;28;20056;-82
2022/01/25 08:38:08;;;;;;;43.42;16.33;;;;;;;-6.10;71.62;100483.06;5054981;28;20107;-82
2022/01/25 08:40:38;;;;;;;41.88;15.70;;;;;;;-6.16;71.23;100463.09;5038255;28;20060;-83
2022/01/25 08:43:22;;;;;;;46.22;17.15;;;;;;;-6.12;71.41;100477.84;5024573;28;20045;-80
2022/01/25 08:45:57;;;;;;;43.67;17.13;;;;;;;-6.10;71.44;100473.78;5055557;28;20045;-84
2022/01/25 08:48:26;;;;;;;40.17;15.13;;;;;;;-6.12;71.18;100466.78;5055693;28;20081;-83
2022/01/25 08:50:53;;;;;;;42.75;15.45;;;;;;;-6.12;71.75;100476.97;5055508;28;20060;-82
2022/01/25 08:53:21;;;;;;;39.90;15.50;;;;;;;-6.12;71.36;100462.59;5058986;28;20052;-82
2022/01/25 08:55:51;;;;;;;45.38;17.25;;;;;;;-6.18;71.79;100467.19;5056137;28;20075;-81
2022/01/25 08:58:19;;;;;;;44.80;16.52;;;;;;;-6.18;71.40;100460.44;5037762;28;20049;-80
2022/01/25 09:00:48;;;;;;;44.53;16.58;;;;;;;-5.97;70.86;100461.25;5037278;28;20114;-84
2022/01/25 09:03:15;;;;;;;41.53;15.98;;;;;;;-6.12;70.52;100428.63;5036841;28;20052;-79
2022/01/25 09:05:42;;;;;;;39.55;16.48;;;;;;;-6.21;70.40;100424.59;5055171;28;20099;-83
2022/01/25 09:08:15;;;;;;;42.38;15.20;;;;;;;-6.26;70.56;100438.63;5055566;28;20505;-80
2022/01/25 09:10:42;;;;;;;40.30;16.08;;;;;;;-6.38;70.99;100435.09;5021234;28;20405;-82
2022/01/25 09:13:09;;;;;;;44.13;16.20;;;;;;;-6.38;70.68;100424.94;5054497;28;20362;-80
2022/01/25 09:15:36;;;;;;;40.25;15.68;;;;;;;-6.20;70.87;100423.81;5056269;28;20099;-81
2022/01/25 09:18:04;;;;;;;38.75;15.45;;;;;;;-6.01;70.38;100417.63;5054883;28;20048;-78
2022/01/25 09:20:31;;;;;;;39.80;15.57;;;;;;;-6.02;69.58;100408.25;5054047;28;20049;-80
2022/01/25 09:22:58;;;;;;;32.63;13.23;;;;;;;-6.12;70.26;100403.22;5036807;28;20095;-79
2022/01/25 09:25:29;;;;;;;31.27;13.45;;;;;;;-6.06;70.09;100406.22;5055246;28;20065;-79
2022/01/25 09:27:58;;;;;;;36.28;14.35;;;;;;;-6.03;69.90;100394.63;5054423;28;20048;-78
2022/01/25 09:30:25;;;;;;;30.30;12.20;;;;;;;-6.13;69.49;100388.69;5036517;28;20053;-79
2022/01/25 09:32:52;;;;;;;35.63;13.90;;;;;;;-6.09;69.94;100409.41;5036982;28;20048;-78
2022/01/25 09:35:20;;;;;;;36.53;13.38;;;;;;;-6.11;70.05;100400.75;5054362;28;20053;-78
2022/01/25 09:37:47;;;;;;;40.88;14.18;;;;;;;-6.16;69.74;100391.00;5054339;28;20132;-80
2022/01/25 09:40:15;;;;;;;33.50;12.95;;;;;;;-6.16;70.19;100391.00;5054104;28;20428;-79
2022/01/25 09:42:42;;;;;;;33.03;13.43;;;;;;;-5.97;70.38;100384.03;5054162;28;20052;-83
2022/01/25 09:45:15;;;;;;;35.20;13.38;;;;;;;-5.77;69.41;100378.75;5054243;28;20061;-79
2022/01/25 09:47:43;;;;;;;36.13;13.07;;;;;;;-5.83;69.32;100357.97;5054105;28;20106;-81
2022/01/25 09:50:10;;;;;;;33.30;13.32;;;;;;;-5.82;69.04;100374.13;5055305;28;20417;-78
2022/01/25 09:52:40;;;;;;;31.77;12.40;;;;;;;-5.84;69.08;100373.13;5054116;28;20053;-78
2022/01/25 09:55:29;;;;;;;32.78;13.57;;;;;;;-5.90;69.81;100365.00;5052617;28;20057;-79
2022/01/25 09:57:57;;;;;;;34.25;13.77;;;;;;;-5.76;69.63;100369.50;5039319;28;20056;-81
2022/01/25 10:00:28;;;;;;;35.80;13.82;;;;;;;-5.70;68.78;100358.88;5015975;28;20531;-79
2022/01/25 10:05:32;;;;;;;33.47;13.85;;;;;;;-5.57;68.63;100331.94;5028946;28;20044;-80
2022/01/25 10:08:13;;;;;;;35.15;13.10;;;;;;;-5.41;68.20;100326.31;5053009;28;20053;-83
2022/01/25 10:10:45;;;;;;;29.77;12.85;;;;;;;-5.39;68.11;100322.22;5042799;28;20055;-80
2022/01/25 10:13:23;;;;;;;30.98;13.07;;;;;;;-5.46;68.58;100308.91;5045176;28;20083;-81
2022/01/25 10:16:01;;;;;;;33.10;13.43;;;;;;;-5.51;68.33;100318.75;5053320;28;20469;-79
2022/01/25 10:18:47;;;;;;;30.17;13.63;;;;;;;-5.48;67.63;100313.03;5053675;28;20053;-79
2022/01/25 10:21:40;;;;;;;32.00;12.57;;;;;;;-5.58;67.70;100301.25;5057481;28;20063;-80
2022/01/25 10:24:19;;;;;;;31.10;12.55;;;;;;;-5.70;67.80;100292.69;5042445;28;20063;-79
2022/01/25 10:27:13;;;;;;;30.80;12.98;;;;;;;-5.80;68.52;100281.84;5062831;28;20076;-79
2022/01/25 10:29:41;;;;;;;31.52;13.02;;;;;;;-5.65;68.07;100287.19;5056841;28;20044;-80
2022/01/25 10:32:13;;;;;;;31.63;12.77;;;;;;;-5.68;67.40;100286.06;5056274;28;20052;-82
2022/01/25 10:34:46;;;;;;;31.00;12.07;;;;;;;-5.72;68.06;100290.06;5053395;28;20145;-79
2022/01/25 10:37:20;;;;;;;31.58;12.00;;;;;;;-5.64;67.83;100288.06;5053178;28;20056;-79
2022/01/25 10:39:52;;;;;;;30.45;12.80;;;;;;;-5.68;67.55;100274.22;5052957;28;20140;-80
2022/01/25 10:42:22;;;;;;;29.40;11.20;;;;;;;-5.78;67.75;100280.31;5052817;28;20052;-80
2022/01/25 10:44:53;;;;;;;25.25;10.60;;;;;;;-5.85;68.19;100275.53;5049891;28;20059;-80
2022/01/25 10:47:46;;;;;;;28.85;12.13;;;;;;;-5.65;67.94;100264.28;5052431;28;20091;-80
2022/01/25 10:50:12;;;;;;;28.98;12.63;;;;;;;-5.47;66.71;100261.31;5052258;28;20071;-81
2022/01/25 10:52:39;;;;;;;28.70;12.30;;;;;;;-5.51;67.01;100261.88;5052527;28;20501;-79
2022/01/25 10:55:07;;;;;;;29.15;11.98;;;;;;;-5.72;67.31;100249.34;5052373;28;20508;-79
2022/01/25 10:57:34;;;;;;;24.27;10.82;;;;;;;-5.76;67.37;100240.59;5034627;28;20057;-80
2022/01/25 11:00:21;;;;;;;27.05;11.80;;;;;;;-5.79;67.65;100247.09;5051332;28;20041;-82
2022/01/25 11:02:50;;;;;;;27.27;11.48;;;;;;;-5.67;67.26;100235.28;5049847;28;20057;-81
2022/01/25 11:05:18;;;;;;;28.25;12.02;;;;;;;-5.62;67.75;100239.03;5052289;28;20131;-82
2022/01/25 11:07:46;;;;;;;27.20;11.68;;;;;;;-5.66;67.33;100216.69;5037028;28;20049;-78
2022/01/25 11:10:19;;;;;;;26.15;10.90;;;;;;;-5.59;67.48;100234.19;5041108;28;20154;-80
2022/01/25 11:13:22;;;;;;;25.90;10.95;;;;;;;-5.43;66.82;100222.56;5054969;28;20096;-80
2022/01/25 11:15:35;;;;;;;27.80;12.35;;;;;;;-5.67;67.07;100220.00;5050428;28;20049;-79
2022/01/25 11:18:05;;;;;;;24.75;10.82;;;;;;;-5.66;68.00;100226.88;5051402;28;20513;-81
2022/01/25 11:20:33;;;;;;;30.52;12.95;;;;;;;-5.66;67.47;100211.59;5049782;28;20500;-82
2022/01/25 11:23:01;;;;;;;28.45;12.60;;;;;;;-5.68;67.88;100225.88;5052010;28;20468;-80
2022/01/25 11:25:36;;;;;;;26.55;11.05;;;;;;;-5.61;67.37;100217.94;5049710;28;20052;-81
2022/01/25 11:28:04;;;;;;;27.08;11.30;;;;;;;-5.64;67.08;100204.06;5052318;28;20064;-78
2022/01/25 11:30:31;;;;;;;25.42;11.00;;;;;;;-5.57;67.68;100212.28;5049446;28;20033;-81
2022/01/25 11:32:59;;;;;;;28.23;11.27;;;;;;;-5.46;67.47;100201.97;5052138;28;20131;-79
2022/01/25 11:35:28;;;;;;;24.00;10.85;;;;;;;-5.44;67.18;100195.31;5053753;28;20072;-80
2022/01/25 11:37:56;;;;;;;27.63;10.98;;;;;;;-5.51;67.29;100180.41;5025438;28;20136;-78
2022/01/25 11:40:39;;;;;;;29.98;12.02;;;;;;;-5.68;67.64;100162.22;5063351;28;20045;-78
2022/01/25 11:43:13;;;;;;;29.30;12.13;;;;;;;-5.66;67.63;100162.34;5045293;28;20048;-81
2022/01/25 11:45:49;;;;;;;30.42;11.65;;;;;;;-5.56;68.05;100164.78;5063809;28;20053;-80
2022/01/25 11:48:23;;;;;;;27.40;12.35;;;;;;;-5.44;67.75;100188.59;5045907;28;20076;-81
2022/01/25 11:50:50;;;;;;;26.85;11.65;;;;;;;-5.65;67.66;100179.41;5054133;28;20056;-79
2022/01/25 11:53:23;;;;;;;29.58;12.23;;;;;;;-5.85;68.25;100147.41;5054652;28;20059;-78
2022/01/25 11:55:53;;;;;;;26.77;11.75;;;;;;;-5.75;68.42;100142.22;5055372;28;20049;-80
2022/01/25 11:58:23;;;;;;;28.33;11.82;;;;;;;-5.51;68.31;100152.38;5055607;28;20072;-79
2022/01/25 12:00:56;;;;;;;30.00;12.50;;;;;;;-5.56;68.16;100152.06;5052068;28;20483;-80
2022/01/25 12:03:46;;;;;;;28.27;11.65;;;;;;;-5.76;68.26;100151.50;5054718;28;20319;-78
2022/01/25 12:06:23;;;;;;;28.23;11.93;;;;;;;-5.92;68.64;100145.19;5056015;28;20131;-80
2022/01/25 12:09:06;;;;;;;26.33;11.35;;;;;;;-6.03;68.99;100131.72;5053025;28;20048;-79
2022/01/25 12:11:52;;;;;;;27.90;11.90;;;;;;;-6.10;69.02;100127.84;5053435;28;20048;-80
2022/01/25 12:14:21;;;;;;;29.08;12.00;;;;;;;-5.99;69.20;100132.06;5054099;28;20076;-81
2022/01/25 12:17:02;;;;;;;28.13;12.02;;;;;;;-5.92;69.33;100112.13;5037658;28;20052;-79
2022/01/25 12:19:44;;;;;;;28.08;11.57;;;;;;;-6.03;69.22;100119.00;5052520;28;20087;-81
2022/01/25 12:22:48;;;;;;;28.23;11.40;;;;;;;-6.27;69.61;100093.53;5035153;28;20416;-81
2022/01/25 12:25:26;;;;;;;28.00;12.07;;;;;;;-6.21;69.78;100111.81;5053608;28;20122;-80
2022/01/25 12:27:59;;;;;;;31.58;12.27;;;;;;;-6.10;69.90;100102.41;5054063;28;20052;-81
2022/01/25 12:30:26;;;;;;;29.85;13.55;;;;;;;-5.97;70.08;100094.03;5056347;28;20052;-80
2022/01/25 12:33:02;;;;;;;31.35;13.18;;;;;;;-5.84;69.48;100089.00;5057932;28;20052;-81
2022/01/25 12:35:54;;;;;;;29.88;11.52;;;;;;;-5.93;69.32;100090.00;5055792;28;20099;-81
2022/01/25 12:38:37;;;;;;;28.52;12.05;;;;;;;-6.02;69.82;100087.72;5059613;28;20044;-80
2022/01/25 12:41:12;;;;;;;32.92;13.05;;;;;;;-5.90;69.75;100098.72;5054760;28;20052;-80
2022/01/25 12:43:53;;;;;;;33.65;13.68;;;;;;;-5.82;70.01;100099.28;5054917;28;20127;-80
2022/01/25 12:46:33;;;;;;;29.63;12.13;;;;;;;-5.70;69.89;100082.38;5052228;28;20045;-79
2022/01/25 12:49:13;;;;;;;28.33;12.07;;;;;;;-5.74;69.95;100089.66;5053796;28;20527;-81
2022/01/25 12:51:42;;;;;;;30.77;12.38;;;;;;;-5.95;70.68;100089.94;5053606;28;20525;-80
2022/01/25 12:54:12;;;;;;;29.67;11.25;;;;;;;-5.92;70.63;100081.59;5054912;28;20057;-80
2022/01/25 12:56:42;;;;;;;29.10;11.90;;;;;;;-5.89;70.39;100094.53;5054285;28;20250;-81
2022/01/25 12:59:13;;;;;;;28.33;12.05;;;;;;;-6.02;70.80;100093.69;5037058;28;20467;-81
2022/01/25 13:01:45;;;;;;;28.55;11.45;;;;;;;-6.06;70.67;100088.28;5055240;28;20088;-80
2022/01/25 13:04:13;;;;;;;30.33;11.55;;;;;;;-6.10;70.85;100117.69;5053112;28;20501;-79
2022/01/25 13:06:43;;;;;;;29.85;11.55;;;;;;;-6.29;70.92;100101.84;5038600;28;20076;-80
2022/01/25 13:09:19;;;;;;;33.20;12.23;;;;;;;-6.21;71.74;100133.81;5067871;28;20071;-79
2022/01/25 13:16:58;;;;;;;30.85;12.40;;;;;;;-6.22;71.74;100120.19;5071182;28;20049;-79
2022/01/25 13:19:31;;;;;;;30.17;11.85;;;;;;;-6.16;71.50;100123.97;5075435;28;20084;-79
2022/01/25 13:22:11;;;;;;;29.33;12.38;;;;;;;-6.22;70.98;100115.09;5039977;28;20670;-81